sensor_id;sensor_type;location;lat;lon;timestamp;pressure;altitude;pressure_sealevel;temperature;humidity
25664;BME280;13522;50.018;20.014;2022-07-29T00:00:26;99111.64;;;17.37;95.64
25664;BME280;13522;50.018;20.014;2022-07-29T00:03:40;99116.22;;;17.28;95.52
25664;BME280;13522;50.018;20.014;2022-07-29T00:06:52;99101.80;;;17.29;95.79
25664;BME280;13522;50.018;20.014;2022-07-29T00:10:05;99109.24;;;17.19;94.88
25664;BME280;13522;50.018;20.014;2022-07-29T00:13:17;99110.42;;;17.16;96.15
25664;BME280;13522;50.018;20.014;2022-07-29T00:16:32;99111.59;;;17.14;95.87
25664;BME280;13522;50.018;20.014;2022-07-29T00:19:44;99108.63;;;17.09;97.26
25664;BME280;13522;50.018;20.014;2022-07-29T00:22:56;99113.00;;;17.02;97.11
25664;BME280;13522;50.018;20.014;2022-07-29T00:26:08;99114.69;;;17.03;98.03
25664;BME280;13522;50.018;20.014;2022-07-29T00:29:20;99114.69;;;17.03;97.10
25664;BME280;13522;50.018;20.014;2022-07-29T00:32:34;99117.38;;;17.03;96.77
25664;BME280;13522;50.018;20.014;2022-07-29T00:35:46;99116.02;;;17.07;96.90
25664;BME280;13522;50.018;20.014;2022-07-29T00:38:59;99103.59;;;17.06;96.94
25664;BME280;13522;50.018;20.014;2022-07-29T00:42:11;99109.80;;;17.06;96.60
25664;BME280;13522;50.018;20.014;2022-07-29T00:45:23;99114.98;;;17.08;96.72
25664;BME280;13522;50.018;20.014;2022-07-29T00:48:35;99107.30;;;17.05;95.94
25664;BME280;13522;50.018;20.014;2022-07-29T00:51:49;99105.89;;;17.17;95.70
25664;BME280;13522;50.018;20.014;2022-07-29T00:55:01;99102.19;;;17.18;94.76
25664;BME280;13522;50.018;20.014;2022-07-29T00:58:14;99101.23;;;17.11;94.85
25664;BME280;13522;50.018;20.014;2022-07-29T01:01:26;99103.30;;;17.01;93.56
25664;BME280;13522;50.018;20.014;2022-07-29T01:04:38;99098.45;;;16.96;93.18
25664;BME280;13522;50.018;20.014;2022-07-29T01:07:52;99091.91;;;16.99;93.46
25664;BME280;13522;50.018;20.014;2022-07-29T01:11:05;99106.09;;;17.07;94.52
25664;BME280;13522;50.018;20.014;2022-07-29T01:14:17;99104.95;;;17.02;93.75
25664;BME280;13522;50.018;20.014;2022-07-29T01:17:38;99104.66;;;16.97;94.92
25664;BME280;13522;50.018;20.014;2022-07-29T01:21:07;99099.63;;;16.94;94.36
25664;BME280;13522;50.018;20.014;2022-07-29T01:24:43;99089.55;;;16.96;94.73
25664;BME280;13522;50.018;20.014;2022-07-29T01:28:12;99076.46;;;17.01;94.50
25664;BME280;13522;50.018;20.014;2022-07-29T01:31:38;99080.33;;;16.98;93.65
25664;BME280;13522;50.018;20.014;2022-07-29T01:35:00;99081.83;;;17.01;92.50
25664;BME280;13522;50.018;20.014;2022-07-29T01:38:16;99086.17;;;17.02;93.32
25664;BME280;13522;50.018;20.014;2022-07-29T01:41:32;99091.77;;;16.92;92.68
25664;BME280;13522;50.018;20.014;2022-07-29T01:44:54;99091.62;;;16.86;93.37
25664;BME280;13522;50.018;20.014;2022-07-29T01:48:10;99094.33;;;16.78;94.10
25664;BME280;13522;50.018;20.014;2022-07-29T01:51:30;99092.67;;;16.77;93.07
25664;BME280;13522;50.018;20.014;2022-07-29T01:54:47;99092.02;;;16.75;93.24
25664;BME280;13522;50.018;20.014;2022-07-29T01:58:03;99101.02;;;16.82;92.65
25664;BME280;13522;50.018;20.014;2022-07-29T02:01:17;99094.30;;;16.86;93.23
25664;BME280;13522;50.018;20.014;2022-07-29T02:04:31;99087.31;;;16.77;92.28
25664;BME280;13522;50.018;20.014;2022-07-29T02:07:46;99083.48;;;16.71;92.79
25664;BME280;13522;50.018;20.014;2022-07-29T02:10:59;99082.64;;;16.71;93.74
25664;BME280;13522;50.018;20.014;2022-07-29T02:14:14;99079.66;;;16.66;93.46
25664;BME280;13522;50.018;20.014;2022-07-29T02:17:30;99082.02;;;16.61;92.25
25664;BME280;13522;50.018;20.014;2022-07-29T02:20:48;99084.66;;;16.69;93.51
25664;BME280;13522;50.018;20.014;2022-07-29T02:24:02;99087.38;;;16.61;91.43
25664;BME280;13522;50.018;20.014;2022-07-29T02:27:16;99082.38;;;16.58;91.47
25664;BME280;13522;50.018;20.014;2022-07-29T02:30:30;99065.63;;;16.56;89.94
25664;BME280;13522;50.018;20.014;2022-07-29T02:33:44;99059.23;;;16.57;91.50
25664;BME280;13522;50.018;20.014;2022-07-29T02:36:57;99061.41;;;16.61;91.74
25664;BME280;13522;50.018;20.014;2022-07-29T02:40:12;99055.41;;;16.51;91.18
25664;BME280;13522;50.018;20.014;2022-07-29T02:43:26;99061.95;;;16.48;90.22
25664;BME280;13522;50.018;20.014;2022-07-29T02:46:43;99048.20;;;16.43;90.43
25664;BME280;13522;50.018;20.014;2022-07-29T02:50:04;99046.52;;;16.42;91.46
25664;BME280;13522;50.018;20.014;2022-07-29T02:53:21;99048.20;;;16.43;91.76
25664;BME280;13522;50.018;20.014;2022-07-29T02:56:34;99054.92;;;16.39;91.01
25664;BME280;13522;50.018;20.014;2022-07-29T02:59:49;99058.47;;;16.32;92.13
25664;BME280;13522;50.018;20.014;2022-07-29T03:03:06;99064.00;;;16.22;92.38
25664;BME280;13522;50.018;20.014;2022-07-29T03:06:19;99055.84;;;16.16;93.57
25664;BME280;13522;50.018;20.014;2022-07-29T03:09:35;99048.46;;;16.18;93.32
25664;BME280;13522;50.018;20.014;2022-07-29T03:12:48;99045.27;;;16.14;94.15
25664;BME280;13522;50.018;20.014;2022-07-29T03:16:00;99059.02;;;16.11;94.14
25664;BME280;13522;50.018;20.014;2022-07-29T03:19:12;99061.22;;;16.08;93.81
25664;BME280;13522;50.018;20.014;2022-07-29T03:22:25;99061.05;;;16.01;93.48
25664;BME280;13522;50.018;20.014;2022-07-29T03:25:37;99069.09;;;16.01;94.03
25664;BME280;13522;50.018;20.014;2022-07-29T03:28:49;99056.71;;;16.00;94.84
25664;BME280;13522;50.018;20.014;2022-07-29T03:32:02;99050.33;;;16.01;94.68
25664;BME280;13522;50.018;20.014;2022-07-29T03:35:15;99054.36;;;15.97;95.38
25664;BME280;13522;50.018;20.014;2022-07-29T03:38:29;99057.88;;;15.98;94.50
25664;BME280;13522;50.018;20.014;2022-07-29T03:41:43;99061.41;;;15.90;94.22
25664;BME280;13522;50.018;20.014;2022-07-29T03:44:58;99068.11;;;15.94;95.13
25664;BME280;13522;50.018;20.014;2022-07-29T03:48:16;99064.41;;;15.95;95.40
25664;BME280;13522;50.018;20.014;2022-07-29T03:51:30;99060.39;;;15.91;94.86
25664;BME280;13522;50.018;20.014;2022-07-29T03:54:42;99066.25;;;15.87;95.41
25664;BME280;13522;50.018;20.014;2022-07-29T03:57:55;99072.27;;;15.97;95.54
25664;BME280;13522;50.018;20.014;2022-07-29T04:01:09;99070.93;;;15.93;95.01
25664;BME280;13522;50.018;20.014;2022-07-29T04:04:24;99068.09;;;16.02;94.83
25664;BME280;13522;50.018;20.014;2022-07-29T04:07:36;99072.11;;;16.06;95.52
25664;BME280;13522;50.018;20.014;2022-07-29T04:10:48;99077.94;;;16.18;94.22
25664;BME280;13522;50.018;20.014;2022-07-29T04:14:00;99086.13;;;16.16;93.54
25664;BME280;13522;50.018;20.014;2022-07-29T04:17:11;99081.44;;;16.18;94.10
25664;BME280;13522;50.018;20.014;2022-07-29T04:20:23;99079.42;;;16.20;93.61
25664;BME280;13522;50.018;20.014;2022-07-29T04:23:35;99086.80;;;16.18;93.58
25664;BME280;13522;50.018;20.014;2022-07-29T04:26:51;99073.55;;;16.25;93.04
25664;BME280;13522;50.018;20.014;2022-07-29T04:30:04;99078.41;;;16.29;92.49
25664;BME280;13522;50.018;20.014;2022-07-29T04:33:17;99070.52;;;16.36;94.14
25664;BME280;13522;50.018;20.014;2022-07-29T04:36:29;99078.88;;;16.41;92.98
25664;BME280;13522;50.018;20.014;2022-07-29T04:39:44;99076.67;;;16.44;91.91
25664;BME280;13522;50.018;20.014;2022-07-29T04:42:56;99073.87;;;16.38;91.20
25664;BME280;13522;50.018;20.014;2022-07-29T04:46:10;99073.33;;;16.42;91.54
25664;BME280;13522;50.018;20.014;2022-07-29T04:49:22;99059.56;;;16.62;92.01
25664;BME280;13522;50.018;20.014;2022-07-29T04:52:34;99051.08;;;16.81;90.64
25664;BME280;13522;50.018;20.014;2022-07-29T04:55:46;99056.59;;;16.87;90.53
25664;BME280;13522;50.018;20.014;2022-07-29T04:58:57;99056.03;;;16.92;89.97
25664;BME280;13522;50.018;20.014;2022-07-29T05:02:09;99057.72;;;16.93;90.09
25664;BME280;13522;50.018;20.014;2022-07-29T05:05:21;99052.13;;;17.02;89.66
25664;BME280;13522;50.018;20.014;2022-07-29T05:08:33;99051.94;;;17.04;87.41
25664;BME280;13522;50.018;20.014;2022-07-29T05:11:46;99048.36;;;17.11;88.51
25664;BME280;13522;50.018;20.014;2022-07-29T05:14:58;99054.19;;;17.23;86.72
25664;BME280;13522;50.018;20.014;2022-07-29T05:18:10;99055.19;;;17.22;87.76
25664;BME280;13522;50.018;20.014;2022-07-29T05:21:22;99058.13;;;17.35;87.13
25664;BME280;13522;50.018;20.014;2022-07-29T05:24:34;99058.88;;;17.44;86.65
25664;BME280;13522;50.018;20.014;2022-07-29T05:27:46;99049.30;;;17.49;86.52
25664;BME280;13522;50.018;20.014;2022-07-29T05:30:58;99050.45;;;17.55;85.93
25664;BME280;13522;50.018;20.014;2022-07-29T05:34:10;99046.02;;;17.62;86.64
25664;BME280;13522;50.018;20.014;2022-07-29T05:37:23;99050.47;;;17.69;85.16
25664;BME280;13522;50.018;20.014;2022-07-29T05:40:35;99049.98;;;17.88;85.94
25664;BME280;13522;50.018;20.014;2022-07-29T05:43:47;99046.77;;;18.22;85.05
25664;BME280;13522;50.018;20.014;2022-07-29T05:46:58;99037.52;;;18.54;83.11
25664;BME280;13522;50.018;20.014;2022-07-29T05:50:11;99047.47;;;18.89;81.47
25664;BME280;13522;50.018;20.014;2022-07-29T05:53:23;99049.63;;;18.79;80.82
25664;BME280;13522;50.018;20.014;2022-07-29T05:56:35;99056.02;;;18.78;81.24
25664;BME280;13522;50.018;20.014;2022-07-29T05:59:48;99050.73;;;18.70;80.83
25664;BME280;13522;50.018;20.014;2022-07-29T06:03:00;99045.42;;;18.91;81.44
25664;BME280;13522;50.018;20.014;2022-07-29T06:06:13;99049.83;;;19.13;80.48
25664;BME280;13522;50.018;20.014;2022-07-29T06:09:24;99050.34;;;19.23;79.34
25664;BME280;13522;50.018;20.014;2022-07-29T06:12:36;99049.73;;;19.42;80.16
25664;BME280;13522;50.018;20.014;2022-07-29T06:15:48;99044.86;;;19.52;79.46
25664;BME280;13522;50.018;20.014;2022-07-29T06:19:00;99052.47;;;19.70;78.55
25664;BME280;13522;50.018;20.014;2022-07-29T06:22:16;99048.94;;;19.69;77.19
25664;BME280;13522;50.018;20.014;2022-07-29T06:25:28;99042.97;;;19.74;77.24
25664;BME280;13522;50.018;20.014;2022-07-29T06:28:42;99040.43;;;19.94;78.57
25664;BME280;13522;50.018;20.014;2022-07-29T06:31:55;99044.94;;;20.14;76.70
25664;BME280;13522;50.018;20.014;2022-07-29T06:35:09;99044.30;;;20.40;75.26
25664;BME280;13522;50.018;20.014;2022-07-29T06:38:23;99040.28;;;20.70;75.58
25664;BME280;13522;50.018;20.014;2022-07-29T06:41:38;99046.17;;;20.87;74.07
25664;BME280;13522;50.018;20.014;2022-07-29T06:44:51;99050.47;;;21.15;73.94
25664;BME280;13522;50.018;20.014;2022-07-29T06:48:03;99047.81;;;21.35;72.62
25664;BME280;13522;50.018;20.014;2022-07-29T06:51:16;99039.11;;;21.72;72.71
25664;BME280;13522;50.018;20.014;2022-07-29T06:54:29;99036.00;;;22.08;70.97
25664;BME280;13522;50.018;20.014;2022-07-29T06:57:42;99037.17;;;22.58;69.79
25664;BME280;13522;50.018;20.014;2022-07-29T07:00:56;99034.66;;;23.07;68.11
25664;BME280;13522;50.018;20.014;2022-07-29T07:04:11;99022.64;;;23.34;66.26
25664;BME280;13522;50.018;20.014;2022-07-29T07:07:25;99039.64;;;23.48;65.97
25664;BME280;13522;50.018;20.014;2022-07-29T07:10:37;99029.81;;;23.78;65.74
25664;BME280;13522;50.018;20.014;2022-07-29T07:13:50;99028.98;;;24.02;64.61
25664;BME280;13522;50.018;20.014;2022-07-29T07:17:04;99020.22;;;24.06;64.29
25664;BME280;13522;50.018;20.014;2022-07-29T07:20:17;99019.63;;;24.59;63.50
25664;BME280;13522;50.018;20.014;2022-07-29T07:23:30;99021.74;;;24.57;62.95
25664;BME280;13522;50.018;20.014;2022-07-29T07:26:42;99025.23;;;24.64;62.84
25664;BME280;13522;50.018;20.014;2022-07-29T07:29:54;99011.47;;;24.95;63.46
25664;BME280;13522;50.018;20.014;2022-07-29T07:33:05;99012.48;;;25.12;62.49
25664;BME280;13522;50.018;20.014;2022-07-29T07:36:17;99027.79;;;25.25;61.89
25664;BME280;13522;50.018;20.014;2022-07-29T07:39:29;99022.45;;;25.48;61.12
25664;BME280;13522;50.018;20.014;2022-07-29T07:42:41;99019.03;;;25.52;60.82
25664;BME280;13522;50.018;20.014;2022-07-29T07:45:53;99008.53;;;25.79;60.93
25664;BME280;13522;50.018;20.014;2022-07-29T07:49:05;99021.20;;;25.85;60.26
25664;BME280;13522;50.018;20.014;2022-07-29T07:52:19;99019.21;;;25.92;60.33
25664;BME280;13522;50.018;20.014;2022-07-29T07:55:31;99014.88;;;26.14;60.60
25664;BME280;13522;50.018;20.014;2022-07-29T07:58:45;99020.20;;;26.32;59.57
25664;BME280;13522;50.018;20.014;2022-07-29T08:01:57;99012.81;;;26.44;58.23
25664;BME280;13522;50.018;20.014;2022-07-29T08:05:10;99009.72;;;26.52;58.08
25664;BME280;13522;50.018;20.014;2022-07-29T08:08:23;99005.06;;;26.76;58.37
25664;BME280;13522;50.018;20.014;2022-07-29T08:11:36;99000.92;;;27.13;56.81
25664;BME280;13522;50.018;20.014;2022-07-29T08:14:50;99007.92;;;27.37;56.50
25664;BME280;13522;50.018;20.014;2022-07-29T08:18:03;99004.76;;;27.01;56.08
25664;BME280;13522;50.018;20.014;2022-07-29T08:21:16;99001.77;;;27.30;56.57
25664;BME280;13522;50.018;20.014;2022-07-29T08:24:28;99003.26;;;27.21;57.75
25664;BME280;13522;50.018;20.014;2022-07-29T08:27:57;99003.22;;;27.33;54.90
25664;BME280;13522;50.018;20.014;2022-07-29T08:31:11;99002.50;;;27.26;55.59
25664;BME280;13522;50.018;20.014;2022-07-29T08:34:23;99008.46;;;27.51;56.11
25664;BME280;13522;50.018;20.014;2022-07-29T08:37:35;99009.30;;;27.85;55.86
25664;BME280;13522;50.018;20.014;2022-07-29T08:40:48;99001.34;;;27.83;55.03
25664;BME280;13522;50.018;20.014;2022-07-29T08:44:00;99006.96;;;27.93;54.54
25664;BME280;13522;50.018;20.014;2022-07-29T08:47:15;99003.17;;;27.94;54.53
25664;BME280;13522;50.018;20.014;2022-07-29T08:50:28;98996.81;;;28.05;54.57
25664;BME280;13522;50.018;20.014;2022-07-29T08:53:42;99000.73;;;28.31;56.57
25664;BME280;13522;50.018;20.014;2022-07-29T08:56:56;98994.08;;;28.05;53.29
25664;BME280;13522;50.018;20.014;2022-07-29T09:00:11;98986.28;;;28.52;54.09
25664;BME280;13522;50.018;20.014;2022-07-29T09:03:25;98988.26;;;28.78;52.66
25664;BME280;13522;50.018;20.014;2022-07-29T09:06:46;98992.67;;;29.06;52.16
25664;BME280;13522;50.018;20.014;2022-07-29T09:09:59;98982.08;;;29.36;51.56
25664;BME280;13522;50.018;20.014;2022-07-29T09:13:12;98985.58;;;29.32;52.00
25664;BME280;13522;50.018;20.014;2022-07-29T09:16:25;98990.35;;;29.41;50.95
25664;BME280;13522;50.018;20.014;2022-07-29T09:19:39;98987.38;;;29.48;50.30
25664;BME280;13522;50.018;20.014;2022-07-29T09:22:52;98984.44;;;29.54;50.08
25664;BME280;13522;50.018;20.014;2022-07-29T09:26:07;98977.08;;;29.28;50.48
25664;BME280;13522;50.018;20.014;2022-07-29T09:29:20;98975.63;;;29.47;50.68
25664;BME280;13522;50.018;20.014;2022-07-29T09:36:08;98971.45;;;29.71;50.07
25664;BME280;13522;50.018;20.014;2022-07-29T09:39:30;98964.52;;;29.95;49.59
25664;BME280;13522;50.018;20.014;2022-07-29T09:42:43;98961.85;;;30.06;48.78
25664;BME280;13522;50.018;20.014;2022-07-29T09:45:56;98955.00;;;30.50;49.23
25664;BME280;13522;50.018;20.014;2022-07-29T09:49:21;98949.23;;;30.46;48.42
25664;BME280;13522;50.018;20.014;2022-07-29T09:52:41;98943.59;;;30.83;47.45
25664;BME280;13522;50.018;20.014;2022-07-29T09:55:49;98949.05;;;30.68;47.41
25664;BME280;13522;50.018;20.014;2022-07-29T09:59:08;98947.25;;;30.37;47.97
25664;BME280;13522;50.018;20.014;2022-07-29T10:02:20;98940.61;;;29.81;49.21
25664;BME280;13522;50.018;20.014;2022-07-29T10:05:34;98933.02;;;29.93;49.24
25664;BME280;13522;50.018;20.014;2022-07-29T10:08:48;98944.53;;;29.32;49.98
25664;BME280;13522;50.018;20.014;2022-07-29T10:12:09;98934.86;;;29.82;50.70
25664;BME280;13522;50.018;20.014;2022-07-29T10:15:25;98928.70;;;30.54;48.71
25664;BME280;13522;50.018;20.014;2022-07-29T10:18:43;98925.61;;;31.27;48.78
25664;BME280;13522;50.018;20.014;2022-07-29T10:21:57;98917.86;;;30.89;47.83
25664;BME280;13522;50.018;20.014;2022-07-29T10:25:10;98924.80;;;30.40;48.24
25664;BME280;13522;50.018;20.014;2022-07-29T10:28:22;98919.84;;;30.37;49.24
25664;BME280;13522;50.018;20.014;2022-07-29T10:31:36;98922.73;;;30.72;48.25
25664;BME280;13522;50.018;20.014;2022-07-29T10:38:51;98917.73;;;30.54;48.76
25664;BME280;13522;50.018;20.014;2022-07-29T10:42:16;98921.75;;;31.13;48.52
25664;BME280;13522;50.018;20.014;2022-07-29T10:45:32;98907.45;;;31.06;47.40
25664;BME280;13522;50.018;20.014;2022-07-29T10:49:09;98912.31;;;30.79;49.57
25664;BME280;13522;50.018;20.014;2022-07-29T10:52:23;98897.98;;;30.52;48.14
25664;BME280;13522;50.018;20.014;2022-07-29T10:55:38;98910.09;;;30.66;48.90
25664;BME280;13522;50.018;20.014;2022-07-29T11:02:45;98894.31;;;29.48;49.62
25664;BME280;13522;50.018;20.014;2022-07-29T11:06:00;98895.69;;;29.45;51.29
25664;BME280;13522;50.018;20.014;2022-07-29T11:09:20;98900.06;;;28.88;51.74
25664;BME280;13522;50.018;20.014;2022-07-29T11:29:54;98892.21;;;29.23;51.25
25664;BME280;13522;50.018;20.014;2022-07-29T11:40:29;98876.25;;;30.35;50.76
25664;BME280;13522;50.018;20.014;2022-07-29T11:48:19;98870.01;;;30.55;48.98
25664;BME280;13522;50.018;20.014;2022-07-29T11:51:32;98867.27;;;30.50;48.86
25664;BME280;13522;50.018;20.014;2022-07-29T11:54:49;98868.23;;;31.16;52.07
25664;BME280;13522;50.018;20.014;2022-07-29T11:58:04;98849.83;;;31.16;48.52
25664;BME280;13522;50.018;20.014;2022-07-29T12:01:18;98843.80;;;31.19;48.10
25664;BME280;13522;50.018;20.014;2022-07-29T12:04:32;98850.27;;;30.48;48.00
25664;BME280;13522;50.018;20.014;2022-07-29T12:07:45;98843.42;;;30.60;49.83
25664;BME280;13522;50.018;20.014;2022-07-29T12:10:58;98853.31;;;30.61;48.55
25664;BME280;13522;50.018;20.014;2022-07-29T12:14:25;98851.64;;;30.55;48.10
25664;BME280;13522;50.018;20.014;2022-07-29T12:17:39;98850.38;;;31.08;49.80
25664;BME280;13522;50.018;20.014;2022-07-29T12:20:58;98836.66;;;31.23;49.36
25664;BME280;13522;50.018;20.014;2022-07-29T12:24:13;98836.67;;;31.13;48.17
25664;BME280;13522;50.018;20.014;2022-07-29T12:27:27;98839.39;;;31.28;48.70
25664;BME280;13522;50.018;20.014;2022-07-29T12:30:44;98831.70;;;31.55;47.69
25664;BME280;13522;50.018;20.014;2022-07-29T12:33:57;98837.20;;;31.30;46.09
25664;BME280;13522;50.018;20.014;2022-07-29T12:37:10;98825.97;;;31.12;47.84
25664;BME280;13522;50.018;20.014;2022-07-29T12:40:22;98820.73;;;31.20;48.25
25664;BME280;13522;50.018;20.014;2022-07-29T12:43:34;98808.39;;;30.93;48.48
25664;BME280;13522;50.018;20.014;2022-07-29T12:46:47;98819.59;;;30.66;47.55
25664;BME280;13522;50.018;20.014;2022-07-29T12:50:14;98812.52;;;30.95;48.71
25664;BME280;13522;50.018;20.014;2022-07-29T12:53:27;98808.38;;;31.33;46.89
25664;BME280;13522;50.018;20.014;2022-07-29T12:56:42;98799.88;;;31.14;47.19
25664;BME280;13522;50.018;20.014;2022-07-29T13:00:09;98805.38;;;30.99;47.83
25664;BME280;13522;50.018;20.014;2022-07-29T13:03:23;98804.23;;;30.60;48.40
25664;BME280;13522;50.018;20.014;2022-07-29T13:06:40;98805.02;;;30.40;49.48
25664;BME280;13522;50.018;20.014;2022-07-29T13:10:00;98793.24;;;30.50;47.84
25664;BME280;13522;50.018;20.014;2022-07-29T13:13:22;98794.23;;;30.24;48.87
25664;BME280;13522;50.018;20.014;2022-07-29T13:16:34;98793.05;;;30.00;50.18
25664;BME280;13522;50.018;20.014;2022-07-29T13:19:49;98781.45;;;29.77;50.31
25664;BME280;13522;50.018;20.014;2022-07-29T13:23:02;98778.05;;;29.60;50.29
25664;BME280;13522;50.018;20.014;2022-07-29T13:26:13;98796.26;;;29.81;49.86
25664;BME280;13522;50.018;20.014;2022-07-29T13:29:25;98794.44;;;30.02;50.81
25664;BME280;13522;50.018;20.014;2022-07-29T13:32:37;98788.86;;;29.77;49.97
25664;BME280;13522;50.018;20.014;2022-07-29T13:35:49;98777.00;;;29.66;50.06
25664;BME280;13522;50.018;20.014;2022-07-29T13:39:02;98777.59;;;29.73;50.30
25664;BME280;13522;50.018;20.014;2022-07-29T13:42:14;98763.23;;;30.13;50.36
25664;BME280;13522;50.018;20.014;2022-07-29T13:45:26;98769.11;;;30.57;48.60
25664;BME280;13522;50.018;20.014;2022-07-29T13:48:37;98762.55;;;30.68;49.61
25664;BME280;13522;50.018;20.014;2022-07-29T13:51:50;98759.81;;;30.68;47.45
25664;BME280;13522;50.018;20.014;2022-07-29T13:55:02;98752.95;;;30.75;48.23
25664;BME280;13522;50.018;20.014;2022-07-29T13:58:16;98749.95;;;30.82;47.76
25664;BME280;13522;50.018;20.014;2022-07-29T14:01:28;98743.63;;;30.56;48.03
25664;BME280;13522;50.018;20.014;2022-07-29T14:04:40;98745.53;;;30.61;47.08
25664;BME280;13522;50.018;20.014;2022-07-29T14:07:53;98754.20;;;30.18;46.17
25664;BME280;13522;50.018;20.014;2022-07-29T14:11:04;98754.98;;;30.03;47.11
25664;BME280;13522;50.018;20.014;2022-07-29T14:14:16;98744.88;;;30.14;47.90
25664;BME280;13522;50.018;20.014;2022-07-29T14:17:29;98742.19;;;29.62;49.33
25664;BME280;13522;50.018;20.014;2022-07-29T14:20:41;98744.58;;;29.43;49.70
25664;BME280;13522;50.018;20.014;2022-07-29T14:23:52;98742.22;;;29.15;49.71
25664;BME280;13522;50.018;20.014;2022-07-29T14:27:05;98741.99;;;29.22;50.02
25664;BME280;13522;50.018;20.014;2022-07-29T14:30:17;98735.19;;;29.29;50.48
25664;BME280;13522;50.018;20.014;2022-07-29T14:33:29;98730.79;;;29.28;51.16
25664;BME280;13522;50.018;20.014;2022-07-29T14:36:41;98725.70;;;29.05;50.67
25664;BME280;13522;50.018;20.014;2022-07-29T14:39:53;98719.81;;;28.86;51.09
25664;BME280;13522;50.018;20.014;2022-07-29T14:43:07;98723.19;;;28.62;52.17
25664;BME280;13522;50.018;20.014;2022-07-29T14:46:19;98713.11;;;28.41;52.42
25664;BME280;13522;50.018;20.014;2022-07-29T14:49:31;98712.25;;;28.35;53.29
25664;BME280;13522;50.018;20.014;2022-07-29T14:52:42;98697.75;;;28.35;53.52
25664;BME280;13522;50.018;20.014;2022-07-29T14:55:54;98702.58;;;28.22;53.81
25664;BME280;13522;50.018;20.014;2022-07-29T14:59:07;98706.24;;;28.06;53.91
25664;BME280;13522;50.018;20.014;2022-07-29T15:02:19;98707.69;;;27.92;54.67
25664;BME280;13522;50.018;20.014;2022-07-29T15:05:33;98714.44;;;27.85;55.25
25664;BME280;13522;50.018;20.014;2022-07-29T15:08:45;98720.39;;;27.82;56.25
25664;BME280;13522;50.018;20.014;2022-07-29T15:11:57;98724.22;;;27.81;56.81
25664;BME280;13522;50.018;20.014;2022-07-29T15:15:10;98734.36;;;27.64;56.49
25664;BME280;13522;50.018;20.014;2022-07-29T15:18:22;98729.25;;;27.67;56.79
25664;BME280;13522;50.018;20.014;2022-07-29T15:21:34;98739.02;;;27.63;56.81
25664;BME280;13522;50.018;20.014;2022-07-29T15:24:47;98744.70;;;27.62;57.30
25664;BME280;13522;50.018;20.014;2022-07-29T15:27:59;98727.27;;;27.63;58.10
25664;BME280;13522;50.018;20.014;2022-07-29T15:31:12;98722.56;;;27.58;58.28
25664;BME280;13522;50.018;20.014;2022-07-29T15:34:24;98724.14;;;27.54;58.29
25664;BME280;13522;50.018;20.014;2022-07-29T15:37:36;98730.13;;;27.51;57.07
25664;BME280;13522;50.018;20.014;2022-07-29T15:41:16;98725.11;;;27.43;58.34
25664;BME280;13522;50.018;20.014;2022-07-29T15:44:28;98727.18;;;27.36;58.13
25664;BME280;13522;50.018;20.014;2022-07-29T15:47:40;98730.79;;;27.41;58.33
25664;BME280;13522;50.018;20.014;2022-07-29T15:50:52;98731.97;;;27.29;58.94
25664;BME280;13522;50.018;20.014;2022-07-29T15:54:05;98736.28;;;27.25;60.24
25664;BME280;13522;50.018;20.014;2022-07-29T15:57:45;98738.61;;;27.33;59.35
25664;BME280;13522;50.018;20.014;2022-07-29T16:00:59;98742.36;;;27.32;59.12
25664;BME280;13522;50.018;20.014;2022-07-29T16:04:11;98746.67;;;27.28;59.55
25664;BME280;13522;50.018;20.014;2022-07-29T16:07:51;98750.91;;;27.19;59.63
25664;BME280;13522;50.018;20.014;2022-07-29T16:11:31;98757.95;;;27.15;59.64
25664;BME280;13522;50.018;20.014;2022-07-29T16:14:43;98762.09;;;27.01;61.69
25664;BME280;13522;50.018;20.014;2022-07-29T16:17:57;98771.42;;;27.05;61.95
25664;BME280;13522;50.018;20.014;2022-07-29T16:21:14;98793.75;;;27.02;64.19
25664;BME280;13522;50.018;20.014;2022-07-29T16:24:27;98819.33;;;26.84;61.99
25664;BME280;13522;50.018;20.014;2022-07-29T16:27:39;98823.91;;;25.99;67.22
25664;BME280;13522;50.018;20.014;2022-07-29T16:30:52;98839.50;;;24.76;75.21
25664;BME280;13522;50.018;20.014;2022-07-29T16:34:41;98875.83;;;23.37;84.89
25664;BME280;13522;50.018;20.014;2022-07-29T16:38:05;98871.42;;;22.42;89.56
25664;BME280;13522;50.018;20.014;2022-07-29T16:41:16;98886.19;;;22.02;91.79
25664;BME280;13522;50.018;20.014;2022-07-29T16:44:28;98882.95;;;21.54;95.33
25664;BME280;13522;50.018;20.014;2022-07-29T16:47:43;98883.80;;;21.22;97.93
25664;BME280;13522;50.018;20.014;2022-07-29T16:51:16;98889.16;;;20.96;100.00
25664;BME280;13522;50.018;20.014;2022-07-29T16:54:30;98881.45;;;20.80;100.00
25664;BME280;13522;50.018;20.014;2022-07-29T16:57:54;98899.50;;;20.66;100.00
25664;BME280;13522;50.018;20.014;2022-07-29T17:01:05;98893.05;;;20.61;100.00
25664;BME280;13522;50.018;20.014;2022-07-29T17:04:20;98891.14;;;20.48;100.00
25664;BME280;13522;50.018;20.014;2022-07-29T17:07:32;98887.78;;;20.33;100.00
25664;BME280;13522;50.018;20.014;2022-07-29T17:10:57;98891.56;;;20.05;100.00
25664;BME280;13522;50.018;20.014;2022-07-29T17:17:17;98893.83;;;19.95;100.00
25664;BME280;13522;50.018;20.014;2022-07-29T17:20:36;98889.61;;;19.85;100.00
25664;BME280;13522;50.018;20.014;2022-07-29T17:23:52;98881.05;;;19.75;100.00
25664;BME280;13522;50.018;20.014;2022-07-29T17:27:06;98882.91;;;19.75;100.00
25664;BME280;13522;50.018;20.014;2022-07-29T17:30:22;98876.30;;;19.77;100.00
25664;BME280;13522;50.018;20.014;2022-07-29T17:33:37;98884.97;;;19.73;100.00
25664;BME280;13522;50.018;20.014;2022-07-29T17:36:58;98880.83;;;19.70;100.00
25664;BME280;13522;50.018;20.014;2022-07-29T17:40:22;98869.09;;;19.50;100.00